Pleasant Mound, Illinois
Current Conditions -  °F | °C
As of 2:15 PM on Friday 31 Oct 2014 (Local Time) from KSLO Reporting Station
Broken Clouds Broken Clouds  
Wind Chill: 38°   Ceiling: 5000
Heat Index: 46°   Visibility: 10mi
Dew Point: 30°   Wind: 21mph
Humidity: 54%   Direction: 340°NNW
Pressure: 30.22"   Gusts: 26mph
Location:  38.8666°N, 89.3202°W
Report Text: KSLO 311915Z AUTO 34018G23KT 10SM SCT037 SCT045 BKN050 08/M01 A3022 RMK AO2 T00761013
Loading
Personal Weather Stations






























Interactive Weather Map
Tropical Storm Tracking
New forecast layout! Learn more

10-Day Weather Forecast

Advertisements
Track Severe Weather on mobile